sensor_id;sensor_type;location;lat;lon;timestamp;P1;durP1;ratioP1;P2;durP2;ratioP2
12603;SDS011;6367;52.508;13.284;2024-03-02T00:00:36;41.63;;;31.80;;
12603;SDS011;6367;52.508;13.284;2024-03-02T00:03:02;38.53;;;27.93;;
12603;SDS011;6367;52.508;13.284;2024-03-02T00:05:28;47.37;;;32.93;;
12603;SDS011;6367;52.508;13.284;2024-03-02T00:07:54;51.57;;;33.40;;
12603;SDS011;6367;52.508;13.284;2024-03-02T00:10:22;47.30;;;34.17;;
12603;SDS011;6367;52.508;13.284;2024-03-02T00:12:54;44.13;;;33.70;;
12603;SDS011;6367;52.508;13.284;2024-03-02T00:17:55;44.90;;;30.50;;
12603;SDS011;6367;52.508;13.284;2024-03-02T00:20:21;42.00;;;32.00;;
12603;SDS011;6367;52.508;13.284;2024-03-02T00:22:51;42.50;;;32.10;;
12603;SDS011;6367;52.508;13.284;2024-03-02T00:25:16;38.93;;;30.33;;
12603;SDS011;6367;52.508;13.284;2024-03-02T00:27:46;44.80;;;35.10;;
12603;SDS011;6367;52.508;13.284;2024-03-02T00:33:20;45.90;;;34.13;;
12603;SDS011;6367;52.508;13.284;2024-03-02T00:35:47;42.37;;;32.43;;
12603;SDS011;6367;52.508;13.284;2024-03-02T00:38:14;44.73;;;32.40;;
12603;SDS011;6367;52.508;13.284;2024-03-02T00:40:43;43.50;;;31.90;;
12603;SDS011;6367;52.508;13.284;2024-03-02T00:46:00;44.83;;;34.73;;
12603;SDS011;6367;52.508;13.284;2024-03-02T00:48:26;44.27;;;32.40;;
12603;SDS011;6367;52.508;13.284;2024-03-02T00:50:52;45.80;;;34.00;;
12603;SDS011;6367;52.508;13.284;2024-03-02T00:53:18;45.40;;;32.90;;
12603;SDS011;6367;52.508;13.284;2024-03-02T00:55:49;38.07;;;30.53;;
12603;SDS011;6367;52.508;13.284;2024-03-02T00:58:15;42.07;;;31.33;;
12603;SDS011;6367;52.508;13.284;2024-03-02T01:00:41;42.57;;;31.73;;
12603;SDS011;6367;52.508;13.284;2024-03-02T01:03:06;45.07;;;33.47;;
12603;SDS011;6367;52.508;13.284;2024-03-02T01:05:33;43.03;;;32.40;;
12603;SDS011;6367;52.508;13.284;2024-03-02T01:07:58;46.43;;;34.37;;
12603;SDS011;6367;52.508;13.284;2024-03-02T01:10:24;48.43;;;33.33;;
12603;SDS011;6367;52.508;13.284;2024-03-02T01:12:51;46.67;;;34.80;;
12603;SDS011;6367;52.508;13.284;2024-03-02T01:15:16;46.20;;;32.00;;
12603;SDS011;6367;52.508;13.284;2024-03-02T01:17:42;44.83;;;32.40;;
12603;SDS011;6367;52.508;13.284;2024-03-02T01:20:08;49.30;;;36.87;;
12603;SDS011;6367;52.508;13.284;2024-03-02T01:22:34;48.57;;;33.93;;
12603;SDS011;6367;52.508;13.284;2024-03-02T01:25:01;45.67;;;34.97;;
12603;SDS011;6367;52.508;13.284;2024-03-02T01:27:27;47.90;;;35.87;;
12603;SDS011;6367;52.508;13.284;2024-03-02T01:29:53;43.77;;;32.13;;
12603;SDS011;6367;52.508;13.284;2024-03-02T01:32:19;49.60;;;34.90;;
12603;SDS011;6367;52.508;13.284;2024-03-02T01:34:45;47.63;;;36.17;;
12603;SDS011;6367;52.508;13.284;2024-03-02T01:37:11;45.47;;;32.87;;
12603;SDS011;6367;52.508;13.284;2024-03-02T01:39:36;48.40;;;35.97;;
12603;SDS011;6367;52.508;13.284;2024-03-02T01:42:02;44.77;;;33.70;;
12603;SDS011;6367;52.508;13.284;2024-03-02T01:44:28;50.40;;;37.20;;
12603;SDS011;6367;52.508;13.284;2024-03-02T01:46:54;47.33;;;35.47;;
12603;SDS011;6367;52.508;13.284;2024-03-02T01:49:19;52.20;;;37.90;;
12603;SDS011;6367;52.508;13.284;2024-03-02T01:51:45;49.17;;;36.30;;
12603;SDS011;6367;52.508;13.284;2024-03-02T01:54:11;50.20;;;37.23;;
12603;SDS011;6367;52.508;13.284;2024-03-02T01:56:36;50.87;;;37.33;;
12603;SDS011;6367;52.508;13.284;2024-03-02T01:59:02;48.90;;;37.07;;
12603;SDS011;6367;52.508;13.284;2024-03-02T02:01:28;50.37;;;36.80;;
12603;SDS011;6367;52.508;13.284;2024-03-02T02:03:54;49.10;;;36.67;;
12603;SDS011;6367;52.508;13.284;2024-03-02T02:06:20;55.90;;;40.67;;
12603;SDS011;6367;52.508;13.284;2024-03-02T02:08:46;50.00;;;38.47;;
12603;SDS011;6367;52.508;13.284;2024-03-02T02:11:14;49.87;;;38.30;;
12603;SDS011;6367;52.508;13.284;2024-03-02T02:13:41;54.60;;;36.60;;
12603;SDS011;6367;52.508;13.284;2024-03-02T02:16:07;48.27;;;35.77;;
12603;SDS011;6367;52.508;13.284;2024-03-02T02:18:33;51.20;;;38.90;;
12603;SDS011;6367;52.508;13.284;2024-03-02T02:20:59;47.97;;;37.13;;
12603;SDS011;6367;52.508;13.284;2024-03-02T02:23:24;55.40;;;39.47;;
12603;SDS011;6367;52.508;13.284;2024-03-02T02:25:50;57.17;;;42.40;;
12603;SDS011;6367;52.508;13.284;2024-03-02T02:28:16;55.33;;;43.83;;
12603;SDS011;6367;52.508;13.284;2024-03-02T02:30:42;54.43;;;40.57;;
12603;SDS011;6367;52.508;13.284;2024-03-02T02:33:08;61.13;;;41.60;;
12603;SDS011;6367;52.508;13.284;2024-03-02T02:35:34;57.53;;;41.33;;
12603;SDS011;6367;52.508;13.284;2024-03-02T02:38:00;52.70;;;41.77;;
12603;SDS011;6367;52.508;13.284;2024-03-02T02:40:26;52.57;;;41.20;;
12603;SDS011;6367;52.508;13.284;2024-03-02T02:42:54;59.83;;;43.47;;
12603;SDS011;6367;52.508;13.284;2024-03-02T02:45:20;53.83;;;39.17;;
12603;SDS011;6367;52.508;13.284;2024-03-02T02:47:45;57.90;;;42.73;;
12603;SDS011;6367;52.508;13.284;2024-03-02T02:50:11;55.60;;;43.07;;
12603;SDS011;6367;52.508;13.284;2024-03-02T02:52:38;58.40;;;41.47;;
12603;SDS011;6367;52.508;13.284;2024-03-02T02:55:05;58.60;;;44.87;;
12603;SDS011;6367;52.508;13.284;2024-03-02T02:57:36;58.63;;;42.53;;
12603;SDS011;6367;52.508;13.284;2024-03-02T03:00:06;69.83;;;43.73;;
12603;SDS011;6367;52.508;13.284;2024-03-02T03:02:36;53.50;;;42.10;;
12603;SDS011;6367;52.508;13.284;2024-03-02T03:05:03;64.20;;;42.57;;
12603;SDS011;6367;52.508;13.284;2024-03-02T03:07:31;58.17;;;43.30;;
12603;SDS011;6367;52.508;13.284;2024-03-02T03:09:56;57.00;;;42.70;;
12603;SDS011;6367;52.508;13.284;2024-03-02T03:12:22;61.10;;;43.70;;
12603;SDS011;6367;52.508;13.284;2024-03-02T03:14:48;55.23;;;42.67;;
12603;SDS011;6367;52.508;13.284;2024-03-02T03:17:13;63.00;;;45.97;;
12603;SDS011;6367;52.508;13.284;2024-03-02T03:19:39;54.90;;;42.10;;
12603;SDS011;6367;52.508;13.284;2024-03-02T03:22:04;55.73;;;43.53;;
12603;SDS011;6367;52.508;13.284;2024-03-02T03:24:30;58.80;;;44.37;;
12603;SDS011;6367;52.508;13.284;2024-03-02T03:26:57;60.67;;;44.40;;
12603;SDS011;6367;52.508;13.284;2024-03-02T03:29:23;52.70;;;40.93;;
12603;SDS011;6367;52.508;13.284;2024-03-02T03:31:49;56.50;;;42.50;;
12603;SDS011;6367;52.508;13.284;2024-03-02T03:34:15;57.63;;;43.97;;
12603;SDS011;6367;52.508;13.284;2024-03-02T03:36:41;55.70;;;42.17;;
12603;SDS011;6367;52.508;13.284;2024-03-02T03:39:07;62.00;;;41.07;;
12603;SDS011;6367;52.508;13.284;2024-03-02T03:41:33;51.50;;;42.10;;
12603;SDS011;6367;52.508;13.284;2024-03-02T03:43:58;59.23;;;42.30;;
12603;SDS011;6367;52.508;13.284;2024-03-02T03:46:24;57.37;;;41.83;;
12603;SDS011;6367;52.508;13.284;2024-03-02T03:48:49;58.70;;;45.47;;
12603;SDS011;6367;52.508;13.284;2024-03-02T03:51:16;60.10;;;44.03;;
12603;SDS011;6367;52.508;13.284;2024-03-02T03:53:41;55.73;;;39.60;;
12603;SDS011;6367;52.508;13.284;2024-03-02T03:56:07;60.33;;;42.50;;
12603;SDS011;6367;52.508;13.284;2024-03-02T03:58:32;48.80;;;38.53;;
12603;SDS011;6367;52.508;13.284;2024-03-02T04:00:58;55.23;;;42.10;;
12603;SDS011;6367;52.508;13.284;2024-03-02T04:03:24;54.60;;;42.23;;
12603;SDS011;6367;52.508;13.284;2024-03-02T04:05:50;56.53;;;41.40;;
12603;SDS011;6367;52.508;13.284;2024-03-02T04:08:16;48.43;;;39.33;;
12603;SDS011;6367;52.508;13.284;2024-03-02T04:10:42;49.40;;;39.20;;
12603;SDS011;6367;52.508;13.284;2024-03-02T04:13:07;47.87;;;38.10;;
12603;SDS011;6367;52.508;13.284;2024-03-02T04:15:33;52.17;;;41.80;;
12603;SDS011;6367;52.508;13.284;2024-03-02T04:17:58;59.20;;;45.23;;
12603;SDS011;6367;52.508;13.284;2024-03-02T04:20:24;50.77;;;39.30;;
12603;SDS011;6367;52.508;13.284;2024-03-02T04:22:50;53.37;;;40.40;;
12603;SDS011;6367;52.508;13.284;2024-03-02T04:25:16;53.80;;;40.50;;
12603;SDS011;6367;52.508;13.284;2024-03-02T04:27:41;52.13;;;38.40;;
12603;SDS011;6367;52.508;13.284;2024-03-02T04:30:07;52.80;;;38.97;;
12603;SDS011;6367;52.508;13.284;2024-03-02T04:32:33;53.17;;;40.20;;
12603;SDS011;6367;52.508;13.284;2024-03-02T04:34:58;51.17;;;36.77;;
12603;SDS011;6367;52.508;13.284;2024-03-02T04:37:24;51.53;;;37.73;;
12603;SDS011;6367;52.508;13.284;2024-03-02T04:39:50;50.83;;;38.50;;
12603;SDS011;6367;52.508;13.284;2024-03-02T04:42:15;50.37;;;39.13;;
12603;SDS011;6367;52.508;13.284;2024-03-02T04:44:41;44.40;;;36.20;;
12603;SDS011;6367;52.508;13.284;2024-03-02T04:47:07;46.53;;;37.60;;
12603;SDS011;6367;52.508;13.284;2024-03-02T04:49:32;52.23;;;39.17;;
12603;SDS011;6367;52.508;13.284;2024-03-02T04:51:58;51.30;;;38.30;;
12603;SDS011;6367;52.508;13.284;2024-03-02T04:54:24;59.00;;;40.33;;
12603;SDS011;6367;52.508;13.284;2024-03-02T04:56:49;48.30;;;37.80;;
12603;SDS011;6367;52.508;13.284;2024-03-02T04:59:18;51.60;;;40.60;;
12603;SDS011;6367;52.508;13.284;2024-03-02T05:01:44;49.40;;;38.40;;
12603;SDS011;6367;52.508;13.284;2024-03-02T05:04:11;48.20;;;37.60;;
12603;SDS011;6367;52.508;13.284;2024-03-02T05:06:37;58.10;;;38.03;;
12603;SDS011;6367;52.508;13.284;2024-03-02T05:09:06;52.73;;;38.00;;
12603;SDS011;6367;52.508;13.284;2024-03-02T05:11:33;50.80;;;40.50;;
12603;SDS011;6367;52.508;13.284;2024-03-02T05:14:02;49.00;;;37.70;;
12603;SDS011;6367;52.508;13.284;2024-03-02T05:16:28;54.50;;;38.93;;
12603;SDS011;6367;52.508;13.284;2024-03-02T05:18:53;52.47;;;39.47;;
12603;SDS011;6367;52.508;13.284;2024-03-02T05:21:19;47.40;;;37.17;;
12603;SDS011;6367;52.508;13.284;2024-03-02T05:23:45;49.30;;;38.80;;
12603;SDS011;6367;52.508;13.284;2024-03-02T05:26:10;54.00;;;39.13;;
12603;SDS011;6367;52.508;13.284;2024-03-02T05:28:39;51.23;;;41.10;;
12603;SDS011;6367;52.508;13.284;2024-03-02T05:31:05;52.10;;;40.10;;
12603;SDS011;6367;52.508;13.284;2024-03-02T05:33:30;57.60;;;41.53;;
12603;SDS011;6367;52.508;13.284;2024-03-02T05:35:58;47.77;;;39.17;;
12603;SDS011;6367;52.508;13.284;2024-03-02T05:38:23;51.30;;;39.20;;
12603;SDS011;6367;52.508;13.284;2024-03-02T05:40:49;49.70;;;38.97;;
12603;SDS011;6367;52.508;13.284;2024-03-02T05:43:15;54.10;;;39.20;;
12603;SDS011;6367;52.508;13.284;2024-03-02T05:45:41;55.57;;;40.20;;
12603;SDS011;6367;52.508;13.284;2024-03-02T05:48:07;56.90;;;41.27;;
12603;SDS011;6367;52.508;13.284;2024-03-02T05:50:33;60.37;;;42.70;;
12603;SDS011;6367;52.508;13.284;2024-03-02T05:52:58;53.90;;;42.17;;
12603;SDS011;6367;52.508;13.284;2024-03-02T05:55:24;60.30;;;42.07;;
12603;SDS011;6367;52.508;13.284;2024-03-02T05:57:50;56.77;;;41.27;;
12603;SDS011;6367;52.508;13.284;2024-03-02T06:00:22;59.50;;;43.00;;
12603;SDS011;6367;52.508;13.284;2024-03-02T06:02:47;59.83;;;41.70;;
12603;SDS011;6367;52.508;13.284;2024-03-02T06:05:13;55.70;;;43.23;;
12603;SDS011;6367;52.508;13.284;2024-03-02T06:07:40;52.10;;;39.47;;
12603;SDS011;6367;52.508;13.284;2024-03-02T06:10:05;54.90;;;41.67;;
12603;SDS011;6367;52.508;13.284;2024-03-02T06:12:33;52.57;;;39.50;;
12603;SDS011;6367;52.508;13.284;2024-03-02T06:14:59;52.23;;;40.47;;
12603;SDS011;6367;52.508;13.284;2024-03-02T06:17:25;59.07;;;41.80;;
12603;SDS011;6367;52.508;13.284;2024-03-02T06:19:51;54.80;;;40.40;;
12603;SDS011;6367;52.508;13.284;2024-03-02T06:22:16;61.93;;;40.07;;
12603;SDS011;6367;52.508;13.284;2024-03-02T06:24:44;53.50;;;39.80;;
12603;SDS011;6367;52.508;13.284;2024-03-02T06:27:09;49.63;;;39.10;;
12603;SDS011;6367;52.508;13.284;2024-03-02T06:29:35;54.47;;;40.00;;
12603;SDS011;6367;52.508;13.284;2024-03-02T06:32:01;50.80;;;40.07;;
12603;SDS011;6367;52.508;13.284;2024-03-02T06:34:26;58.00;;;41.03;;
12603;SDS011;6367;52.508;13.284;2024-03-02T06:36:52;57.20;;;40.20;;
12603;SDS011;6367;52.508;13.284;2024-03-02T06:39:17;53.20;;;37.90;;
12603;SDS011;6367;52.508;13.284;2024-03-02T06:41:43;56.40;;;40.10;;
12603;SDS011;6367;52.508;13.284;2024-03-02T06:44:09;57.90;;;41.30;;
12603;SDS011;6367;52.508;13.284;2024-03-02T06:46:34;53.20;;;40.37;;
12603;SDS011;6367;52.508;13.284;2024-03-02T06:49:00;55.00;;;39.70;;
12603;SDS011;6367;52.508;13.284;2024-03-02T06:51:27;55.90;;;40.20;;
12603;SDS011;6367;52.508;13.284;2024-03-02T06:53:53;54.33;;;41.00;;
12603;SDS011;6367;52.508;13.284;2024-03-02T06:56:18;56.30;;;41.17;;
12603;SDS011;6367;52.508;13.284;2024-03-02T06:58:44;54.77;;;40.57;;
12603;SDS011;6367;52.508;13.284;2024-03-02T07:01:10;52.70;;;38.77;;
12603;SDS011;6367;52.508;13.284;2024-03-02T07:03:35;54.13;;;38.97;;
12603;SDS011;6367;52.508;13.284;2024-03-02T07:06:01;53.17;;;39.73;;
12603;SDS011;6367;52.508;13.284;2024-03-02T07:08:27;63.00;;;43.13;;
12603;SDS011;6367;52.508;13.284;2024-03-02T07:10:52;53.73;;;37.47;;
12603;SDS011;6367;52.508;13.284;2024-03-02T07:13:18;51.03;;;38.13;;
12603;SDS011;6367;52.508;13.284;2024-03-02T07:15:43;51.00;;;36.83;;
12603;SDS011;6367;52.508;13.284;2024-03-02T07:18:32;53.03;;;40.57;;
12603;SDS011;6367;52.508;13.284;2024-03-02T07:21:05;51.50;;;36.80;;
12603;SDS011;6367;52.508;13.284;2024-03-02T07:23:32;56.10;;;39.40;;
12603;SDS011;6367;52.508;13.284;2024-03-02T07:25:58;56.33;;;39.97;;
12603;SDS011;6367;52.508;13.284;2024-03-02T07:28:25;57.30;;;40.17;;
12603;SDS011;6367;52.508;13.284;2024-03-02T07:30:58;49.67;;;37.53;;
12603;SDS011;6367;52.508;13.284;2024-03-02T07:33:24;50.63;;;37.47;;
12603;SDS011;6367;52.508;13.284;2024-03-02T07:35:50;49.93;;;38.90;;
12603;SDS011;6367;52.508;13.284;2024-03-02T07:38:15;52.73;;;38.73;;
12603;SDS011;6367;52.508;13.284;2024-03-02T07:40:41;50.60;;;37.13;;
12603;SDS011;6367;52.508;13.284;2024-03-02T07:43:07;48.73;;;37.87;;
12603;SDS011;6367;52.508;13.284;2024-03-02T07:45:33;52.13;;;39.60;;
12603;SDS011;6367;52.508;13.284;2024-03-02T07:48:01;51.80;;;39.40;;
12603;SDS011;6367;52.508;13.284;2024-03-02T07:50:29;53.53;;;39.50;;
12603;SDS011;6367;52.508;13.284;2024-03-02T07:52:59;53.73;;;36.70;;
12603;SDS011;6367;52.508;13.284;2024-03-02T07:55:29;54.03;;;37.00;;
12603;SDS011;6367;52.508;13.284;2024-03-02T07:57:55;57.73;;;42.30;;
12603;SDS011;6367;52.508;13.284;2024-03-02T08:00:24;58.03;;;41.50;;
12603;SDS011;6367;52.508;13.284;2024-03-02T08:02:51;57.57;;;39.07;;
12603;SDS011;6367;52.508;13.284;2024-03-02T08:05:17;53.00;;;40.27;;
12603;SDS011;6367;52.508;13.284;2024-03-02T08:07:44;52.10;;;38.43;;
12603;SDS011;6367;52.508;13.284;2024-03-02T08:10:10;51.73;;;37.80;;
12603;SDS011;6367;52.508;13.284;2024-03-02T08:12:36;58.97;;;39.17;;
12603;SDS011;6367;52.508;13.284;2024-03-02T08:15:02;49.30;;;37.33;;
12603;SDS011;6367;52.508;13.284;2024-03-02T08:17:28;52.20;;;38.70;;
12603;SDS011;6367;52.508;13.284;2024-03-02T08:19:53;54.23;;;39.93;;
12603;SDS011;6367;52.508;13.284;2024-03-02T08:22:19;53.27;;;38.90;;
12603;SDS011;6367;52.508;13.284;2024-03-02T08:24:45;51.33;;;39.00;;
12603;SDS011;6367;52.508;13.284;2024-03-02T08:27:11;51.20;;;37.80;;
12603;SDS011;6367;52.508;13.284;2024-03-02T08:29:37;55.70;;;39.90;;
12603;SDS011;6367;52.508;13.284;2024-03-02T08:32:03;53.77;;;39.23;;
12603;SDS011;6367;52.508;13.284;2024-03-02T08:34:29;59.17;;;39.27;;
12603;SDS011;6367;52.508;13.284;2024-03-02T08:36:55;54.27;;;37.80;;
12603;SDS011;6367;52.508;13.284;2024-03-02T08:39:21;50.20;;;37.30;;
12603;SDS011;6367;52.508;13.284;2024-03-02T08:41:46;55.00;;;39.60;;
12603;SDS011;6367;52.508;13.284;2024-03-02T08:44:13;52.60;;;36.80;;
12603;SDS011;6367;52.508;13.284;2024-03-02T08:46:39;54.33;;;39.07;;
12603;SDS011;6367;52.508;13.284;2024-03-02T08:49:05;52.60;;;37.50;;
12603;SDS011;6367;52.508;13.284;2024-03-02T08:51:31;54.43;;;37.80;;
12603;SDS011;6367;52.508;13.284;2024-03-02T08:53:58;46.57;;;35.13;;
12603;SDS011;6367;52.508;13.284;2024-03-02T08:56:24;50.40;;;36.97;;
12603;SDS011;6367;52.508;13.284;2024-03-02T08:58:50;54.83;;;39.13;;
12603;SDS011;6367;52.508;13.284;2024-03-02T09:01:16;50.27;;;37.60;;
12603;SDS011;6367;52.508;13.284;2024-03-02T09:03:43;54.70;;;36.93;;
12603;SDS011;6367;52.508;13.284;2024-03-02T09:06:12;48.17;;;35.90;;
12603;SDS011;6367;52.508;13.284;2024-03-02T09:08:38;51.93;;;36.40;;
12603;SDS011;6367;52.508;13.284;2024-03-02T09:11:05;52.90;;;37.70;;
12603;SDS011;6367;52.508;13.284;2024-03-02T09:13:31;50.43;;;36.43;;
12603;SDS011;6367;52.508;13.284;2024-03-02T09:15:58;50.97;;;35.63;;
12603;SDS011;6367;52.508;13.284;2024-03-02T09:18:24;48.50;;;35.73;;
12603;SDS011;6367;52.508;13.284;2024-03-02T09:20:49;48.33;;;37.43;;
12603;SDS011;6367;52.508;13.284;2024-03-02T09:23:15;52.23;;;33.67;;
12603;SDS011;6367;52.508;13.284;2024-03-02T09:25:40;45.30;;;35.07;;
12603;SDS011;6367;52.508;13.284;2024-03-02T09:28:06;44.30;;;35.03;;
12603;SDS011;6367;52.508;13.284;2024-03-02T09:30:32;50.43;;;35.83;;
12603;SDS011;6367;52.508;13.284;2024-03-02T09:32:58;52.27;;;36.83;;
12603;SDS011;6367;52.508;13.284;2024-03-02T09:35:24;53.67;;;36.90;;
12603;SDS011;6367;52.508;13.284;2024-03-02T09:37:49;48.27;;;35.60;;
12603;SDS011;6367;52.508;13.284;2024-03-02T09:40:16;47.10;;;35.00;;
12603;SDS011;6367;52.508;13.284;2024-03-02T09:42:41;44.30;;;34.37;;
12603;SDS011;6367;52.508;13.284;2024-03-02T09:45:09;48.27;;;35.00;;
12603;SDS011;6367;52.508;13.284;2024-03-02T09:47:35;52.13;;;35.33;;
12603;SDS011;6367;52.508;13.284;2024-03-02T09:50:01;45.03;;;34.87;;
12603;SDS011;6367;52.508;13.284;2024-03-02T09:52:26;41.17;;;32.23;;
12603;SDS011;6367;52.508;13.284;2024-03-02T09:54:52;44.13;;;33.43;;
12603;SDS011;6367;52.508;13.284;2024-03-02T09:57:18;46.33;;;33.80;;
12603;SDS011;6367;52.508;13.284;2024-03-02T09:59:44;43.67;;;33.33;;
12603;SDS011;6367;52.508;13.284;2024-03-02T10:02:10;47.53;;;34.33;;
12603;SDS011;6367;52.508;13.284;2024-03-02T10:04:36;39.87;;;31.20;;
12603;SDS011;6367;52.508;13.284;2024-03-02T10:07:17;40.47;;;32.20;;
12603;SDS011;6367;52.508;13.284;2024-03-02T10:09:45;41.33;;;31.07;;
12603;SDS011;6367;52.508;13.284;2024-03-02T10:12:13;38.50;;;31.03;;
12603;SDS011;6367;52.508;13.284;2024-03-02T10:14:39;41.40;;;31.50;;
12603;SDS011;6367;52.508;13.284;2024-03-02T10:17:07;42.27;;;29.60;;
12603;SDS011;6367;52.508;13.284;2024-03-02T10:19:33;37.73;;;29.07;;
12603;SDS011;6367;52.508;13.284;2024-03-02T10:22:02;38.87;;;29.00;;
12603;SDS011;6367;52.508;13.284;2024-03-02T10:24:49;36.90;;;28.30;;
12603;SDS011;6367;52.508;13.284;2024-03-02T10:27:15;35.30;;;28.57;;
12603;SDS011;6367;52.508;13.284;2024-03-02T10:29:59;35.00;;;27.87;;
12603;SDS011;6367;52.508;13.284;2024-03-02T10:32:27;34.33;;;27.50;;
12603;SDS011;6367;52.508;13.284;2024-03-02T10:34:53;38.73;;;28.90;;
12603;SDS011;6367;52.508;13.284;2024-03-02T10:37:20;35.17;;;27.13;;
12603;SDS011;6367;52.508;13.284;2024-03-02T10:39:46;37.20;;;28.63;;
12603;SDS011;6367;52.508;13.284;2024-03-02T10:42:12;36.00;;;27.90;;
12603;SDS011;6367;52.508;13.284;2024-03-02T10:44:39;34.43;;;28.50;;
12603;SDS011;6367;52.508;13.284;2024-03-02T10:47:06;32.03;;;25.60;;
12603;SDS011;6367;52.508;13.284;2024-03-02T10:49:33;35.73;;;25.70;;
12603;SDS011;6367;52.508;13.284;2024-03-02T10:51:59;32.10;;;25.70;;
12603;SDS011;6367;52.508;13.284;2024-03-02T10:54:25;34.23;;;25.63;;
12603;SDS011;6367;52.508;13.284;2024-03-02T10:56:52;31.60;;;24.70;;
12603;SDS011;6367;52.508;13.284;2024-03-02T11:01:55;28.60;;;23.40;;
12603;SDS011;6367;52.508;13.284;2024-03-02T11:04:25;28.93;;;22.93;;
12603;SDS011;6367;52.508;13.284;2024-03-02T11:06:54;27.80;;;20.90;;
12603;SDS011;6367;52.508;13.284;2024-03-02T11:09:30;26.23;;;22.70;;
12603;SDS011;6367;52.508;13.284;2024-03-02T11:12:02;33.17;;;22.40;;
12603;SDS011;6367;52.508;13.284;2024-03-02T11:14:29;25.87;;;20.80;;
12603;SDS011;6367;52.508;13.284;2024-03-02T11:16:57;27.70;;;22.40;;
12603;SDS011;6367;52.508;13.284;2024-03-02T11:19:24;26.97;;;21.47;;
12603;SDS011;6367;52.508;13.284;2024-03-02T11:21:50;25.87;;;21.07;;
12603;SDS011;6367;52.508;13.284;2024-03-02T11:26:58;24.63;;;19.87;;
12603;SDS011;6367;52.508;13.284;2024-03-02T11:32:18;27.40;;;20.70;;
12603;SDS011;6367;52.508;13.284;2024-03-02T11:34:49;27.33;;;22.27;;
12603;SDS011;6367;52.508;13.284;2024-03-02T11:37:16;23.53;;;20.00;;
12603;SDS011;6367;52.508;13.284;2024-03-02T11:39:43;26.30;;;20.90;;
12603;SDS011;6367;52.508;13.284;2024-03-02T11:42:09;24.90;;;20.47;;
12603;SDS011;6367;52.508;13.284;2024-03-02T11:44:38;26.30;;;21.37;;
12603;SDS011;6367;52.508;13.284;2024-03-02T11:47:07;23.77;;;19.80;;
12603;SDS011;6367;52.508;13.284;2024-03-02T11:49:37;24.43;;;19.70;;
12603;SDS011;6367;52.508;13.284;2024-03-02T11:52:04;27.53;;;20.47;;
12603;SDS011;6367;52.508;13.284;2024-03-02T11:54:32;24.20;;;20.67;;
12603;SDS011;6367;52.508;13.284;2024-03-02T11:57:02;24.20;;;20.33;;
12603;SDS011;6367;52.508;13.284;2024-03-02T11:59:28;25.43;;;20.27;;
12603;SDS011;6367;52.508;13.284;2024-03-02T12:01:55;24.57;;;21.00;;
12603;SDS011;6367;52.508;13.284;2024-03-02T12:04:21;25.87;;;20.20;;
12603;SDS011;6367;52.508;13.284;2024-03-02T12:06:54;25.87;;;20.47;;
12603;SDS011;6367;52.508;13.284;2024-03-02T12:09:29;24.70;;;19.87;;
12603;SDS011;6367;52.508;13.284;2024-03-02T12:12:04;23.23;;;18.80;;
12603;SDS011;6367;52.508;13.284;2024-03-02T12:14:34;25.20;;;20.30;;
12603;SDS011;6367;52.508;13.284;2024-03-02T12:17:02;25.97;;;20.67;;
12603;SDS011;6367;52.508;13.284;2024-03-02T12:19:28;26.93;;;21.13;;
12603;SDS011;6367;52.508;13.284;2024-03-02T12:21:58;27.13;;;23.37;;
12603;SDS011;6367;52.508;13.284;2024-03-02T12:24:28;27.17;;;22.57;;
12603;SDS011;6367;52.508;13.284;2024-03-02T12:26:54;23.00;;;19.30;;
12603;SDS011;6367;52.508;13.284;2024-03-02T12:29:21;25.23;;;21.30;;
12603;SDS011;6367;52.508;13.284;2024-03-02T12:31:49;27.53;;;20.47;;
12603;SDS011;6367;52.508;13.284;2024-03-02T12:34:17;27.33;;;22.20;;
12603;SDS011;6367;52.508;13.284;2024-03-02T12:36:44;27.43;;;21.53;;
12603;SDS011;6367;52.508;13.284;2024-03-02T12:39:14;27.90;;;21.00;;
12603;SDS011;6367;52.508;13.284;2024-03-02T12:41:43;26.13;;;20.33;;
12603;SDS011;6367;52.508;13.284;2024-03-02T12:44:08;27.93;;;21.83;;
12603;SDS011;6367;52.508;13.284;2024-03-02T12:46:34;26.00;;;20.97;;
12603;SDS011;6367;52.508;13.284;2024-03-02T12:49:10;24.83;;;20.10;;
12603;SDS011;6367;52.508;13.284;2024-03-02T12:51:37;24.53;;;20.40;;
12603;SDS011;6367;52.508;13.284;2024-03-02T12:54:10;25.23;;;20.50;;
12603;SDS011;6367;52.508;13.284;2024-03-02T12:56:40;24.27;;;19.03;;
12603;SDS011;6367;52.508;13.284;2024-03-02T12:59:21;22.63;;;19.37;;
12603;SDS011;6367;52.508;13.284;2024-03-02T13:01:52;21.97;;;18.33;;
12603;SDS011;6367;52.508;13.284;2024-03-02T13:04:25;20.77;;;18.30;;
12603;SDS011;6367;52.508;13.284;2024-03-02T13:06:53;23.97;;;18.47;;
12603;SDS011;6367;52.508;13.284;2024-03-02T13:09:20;19.80;;;17.43;;
12603;SDS011;6367;52.508;13.284;2024-03-02T13:11:46;16.97;;;15.17;;
12603;SDS011;6367;52.508;13.284;2024-03-02T13:14:12;20.10;;;17.50;;
12603;SDS011;6367;52.508;13.284;2024-03-02T13:16:38;24.07;;;17.87;;
12603;SDS011;6367;52.508;13.284;2024-03-02T13:19:07;19.80;;;14.67;;
12603;SDS011;6367;52.508;13.284;2024-03-02T13:21:33;18.00;;;15.33;;
12603;SDS011;6367;52.508;13.284;2024-03-02T13:23:59;18.87;;;15.47;;
12603;SDS011;6367;52.508;13.284;2024-03-02T13:26:25;20.70;;;16.47;;
12603;SDS011;6367;52.508;13.284;2024-03-02T13:28:51;22.50;;;16.13;;
12603;SDS011;6367;52.508;13.284;2024-03-02T13:31:16;22.67;;;17.03;;
12603;SDS011;6367;52.508;13.284;2024-03-02T13:33:42;18.67;;;16.57;;
12603;SDS011;6367;52.508;13.284;2024-03-02T13:36:08;23.27;;;19.80;;
12603;SDS011;6367;52.508;13.284;2024-03-02T13:38:33;23.40;;;18.70;;
12603;SDS011;6367;52.508;13.284;2024-03-02T13:40:59;22.30;;;18.83;;
12603;SDS011;6367;52.508;13.284;2024-03-02T13:43:26;21.90;;;17.60;;
12603;SDS011;6367;52.508;13.284;2024-03-02T13:45:52;24.03;;;19.40;;
12603;SDS011;6367;52.508;13.284;2024-03-02T13:48:18;19.80;;;17.13;;
12603;SDS011;6367;52.508;13.284;2024-03-02T13:50:44;22.30;;;17.10;;
12603;SDS011;6367;52.508;13.284;2024-03-02T13:53:11;18.07;;;14.03;;
12603;SDS011;6367;52.508;13.284;2024-03-02T13:55:37;19.70;;;15.87;;
12603;SDS011;6367;52.508;13.284;2024-03-02T13:58:02;18.47;;;15.43;;
12603;SDS011;6367;52.508;13.284;2024-03-02T14:00:29;19.93;;;15.70;;
12603;SDS011;6367;52.508;13.284;2024-03-02T14:02:55;19.17;;;16.60;;
12603;SDS011;6367;52.508;13.284;2024-03-02T14:05:21;19.80;;;14.70;;
12603;SDS011;6367;52.508;13.284;2024-03-02T14:07:47;15.93;;;14.13;;
12603;SDS011;6367;52.508;13.284;2024-03-02T14:10:12;14.10;;;11.73;;
12603;SDS011;6367;52.508;13.284;2024-03-02T14:12:40;18.97;;;14.77;;
12603;SDS011;6367;52.508;13.284;2024-03-02T14:15:06;21.57;;;15.13;;
12603;SDS011;6367;52.508;13.284;2024-03-02T14:17:32;14.97;;;12.90;;
12603;SDS011;6367;52.508;13.284;2024-03-02T14:19:58;19.40;;;15.30;;
12603;SDS011;6367;52.508;13.284;2024-03-02T14:22:26;18.80;;;15.90;;
12603;SDS011;6367;52.508;13.284;2024-03-02T14:24:52;18.73;;;16.30;;
12603;SDS011;6367;52.508;13.284;2024-03-02T14:27:18;17.03;;;13.33;;
12603;SDS011;6367;52.508;13.284;2024-03-02T14:29:44;14.50;;;13.00;;
12603;SDS011;6367;52.508;13.284;2024-03-02T14:32:09;16.37;;;12.03;;
12603;SDS011;6367;52.508;13.284;2024-03-02T14:34:35;14.50;;;12.10;;